sensor_id;sensor_type;location;lat;lon;timestamp;P1;durP1;ratioP1;P2;durP2;ratioP2
3769;SDS011;1900;48.890;9.190;2022-11-11T00:01:01;11.50;;;7.00;;
3769;SDS011;1900;48.890;9.190;2022-11-11T00:03:48;19.30;;;7.70;;
3769;SDS011;1900;48.890;9.190;2022-11-11T00:06:36;15.10;;;7.87;;
3769;SDS011;1900;48.890;9.190;2022-11-11T00:09:21;14.87;;;7.90;;
3769;SDS011;1900;48.890;9.190;2022-11-11T00:12:05;13.63;;;8.00;;
3769;SDS011;1900;48.890;9.190;2022-11-11T00:14:49;13.70;;;7.53;;
3769;SDS011;1900;48.890;9.190;2022-11-11T00:17:33;12.33;;;7.07;;
3769;SDS011;1900;48.890;9.190;2022-11-11T00:20:36;18.00;;;7.27;;
3769;SDS011;1900;48.890;9.190;2022-11-11T00:23:39;11.43;;;7.33;;
3769;SDS011;1900;48.890;9.190;2022-11-11T00:26:42;11.27;;;7.70;;
3769;SDS011;1900;48.890;9.190;2022-11-11T00:29:27;31.20;;;8.83;;
3769;SDS011;1900;48.890;9.190;2022-11-11T00:32:11;10.43;;;8.17;;
3769;SDS011;1900;48.890;9.190;2022-11-11T00:35:13;12.60;;;8.60;;
3769;SDS011;1900;48.890;9.190;2022-11-11T00:38:16;11.80;;;8.20;;
3769;SDS011;1900;48.890;9.190;2022-11-11T00:41:20;14.90;;;8.20;;
3769;SDS011;1900;48.890;9.190;2022-11-11T00:44:06;13.07;;;8.60;;
3769;SDS011;1900;48.890;9.190;2022-11-11T00:46:50;14.70;;;8.60;;
3769;SDS011;1900;48.890;9.190;2022-11-11T00:49:53;19.23;;;8.93;;
3769;SDS011;1900;48.890;9.190;2022-11-11T00:52:56;18.40;;;8.00;;
3769;SDS011;1900;48.890;9.190;2022-11-11T00:55:40;17.57;;;8.37;;
3769;SDS011;1900;48.890;9.190;2022-11-11T00:58:24;11.67;;;7.57;;
3769;SDS011;1900;48.890;9.190;2022-11-11T01:01:11;17.93;;;8.33;;
3769;SDS011;1900;48.890;9.190;2022-11-11T01:03:56;11.67;;;8.00;;
3769;SDS011;1900;48.890;9.190;2022-11-11T01:06:40;13.00;;;8.30;;
3769;SDS011;1900;48.890;9.190;2022-11-11T01:09:24;12.90;;;7.70;;
3769;SDS011;1900;48.890;9.190;2022-11-11T01:12:09;12.27;;;8.47;;
3769;SDS011;1900;48.890;9.190;2022-11-11T01:14:54;12.00;;;7.50;;
3769;SDS011;1900;48.890;9.190;2022-11-11T01:17:38;12.63;;;8.93;;
3769;SDS011;1900;48.890;9.190;2022-11-11T01:20:22;13.40;;;8.00;;
3769;SDS011;1900;48.890;9.190;2022-11-11T01:23:07;13.03;;;7.40;;
3769;SDS011;1900;48.890;9.190;2022-11-11T01:25:53;15.23;;;8.70;;
3769;SDS011;1900;48.890;9.190;2022-11-11T01:28:37;14.27;;;8.47;;
3769;SDS011;1900;48.890;9.190;2022-11-11T01:31:22;13.83;;;7.77;;
3769;SDS011;1900;48.890;9.190;2022-11-11T01:34:08;12.60;;;8.30;;
3769;SDS011;1900;48.890;9.190;2022-11-11T01:36:52;18.03;;;8.23;;
3769;SDS011;1900;48.890;9.190;2022-11-11T01:39:36;14.37;;;8.70;;
3769;SDS011;1900;48.890;9.190;2022-11-11T01:42:21;11.70;;;7.13;;
3769;SDS011;1900;48.890;9.190;2022-11-11T01:45:42;13.03;;;8.43;;
3769;SDS011;1900;48.890;9.190;2022-11-11T01:48:39;14.90;;;8.10;;
3769;SDS011;1900;48.890;9.190;2022-11-11T01:51:55;15.20;;;8.73;;
3769;SDS011;1900;48.890;9.190;2022-11-11T02:00:28;14.63;;;8.77;;
3769;SDS011;1900;48.890;9.190;2022-11-11T02:03:13;15.30;;;7.87;;
3769;SDS011;1900;48.890;9.190;2022-11-11T02:05:57;11.37;;;8.10;;
3769;SDS011;1900;48.890;9.190;2022-11-11T02:08:42;13.93;;;8.50;;
3769;SDS011;1900;48.890;9.190;2022-11-11T02:11:27;10.50;;;7.30;;
3769;SDS011;1900;48.890;9.190;2022-11-11T02:14:51;11.00;;;8.17;;
3769;SDS011;1900;48.890;9.190;2022-11-11T02:17:38;20.30;;;9.50;;
3769;SDS011;1900;48.890;9.190;2022-11-11T02:20:24;12.00;;;7.83;;
3769;SDS011;1900;48.890;9.190;2022-11-11T02:26:22;11.37;;;7.77;;
3769;SDS011;1900;48.890;9.190;2022-11-11T02:29:08;20.40;;;7.97;;
3769;SDS011;1900;48.890;9.190;2022-11-11T02:31:56;14.80;;;7.00;;
3769;SDS011;1900;48.890;9.190;2022-11-11T02:34:41;8.83;;;7.27;;
3769;SDS011;1900;48.890;9.190;2022-11-11T02:37:25;13.53;;;7.60;;
3769;SDS011;1900;48.890;9.190;2022-11-11T02:40:11;10.13;;;6.90;;
3769;SDS011;1900;48.890;9.190;2022-11-11T02:43:01;12.30;;;8.20;;
3769;SDS011;1900;48.890;9.190;2022-11-11T02:45:45;13.13;;;8.37;;
3769;SDS011;1900;48.890;9.190;2022-11-11T02:48:29;13.00;;;8.07;;
3769;SDS011;1900;48.890;9.190;2022-11-11T02:51:14;10.57;;;7.00;;
3769;SDS011;1900;48.890;9.190;2022-11-11T02:53:58;11.97;;;7.90;;
3769;SDS011;1900;48.890;9.190;2022-11-11T02:56:42;12.87;;;7.27;;
3769;SDS011;1900;48.890;9.190;2022-11-11T02:59:45;15.20;;;7.50;;
3769;SDS011;1900;48.890;9.190;2022-11-11T03:02:29;10.33;;;7.33;;
3769;SDS011;1900;48.890;9.190;2022-11-11T03:05:14;12.70;;;8.00;;
3769;SDS011;1900;48.890;9.190;2022-11-11T03:07:58;13.60;;;7.13;;
3769;SDS011;1900;48.890;9.190;2022-11-11T03:10:42;13.60;;;7.83;;
3769;SDS011;1900;48.890;9.190;2022-11-11T03:13:26;13.00;;;7.20;;
3769;SDS011;1900;48.890;9.190;2022-11-11T03:16:10;11.37;;;7.17;;
3769;SDS011;1900;48.890;9.190;2022-11-11T03:19:14;9.90;;;7.17;;
3769;SDS011;1900;48.890;9.190;2022-11-11T03:21:59;13.43;;;6.37;;
3769;SDS011;1900;48.890;9.190;2022-11-11T03:24:46;15.53;;;7.73;;
3769;SDS011;1900;48.890;9.190;2022-11-11T03:27:49;12.40;;;8.17;;
3769;SDS011;1900;48.890;9.190;2022-11-11T03:30:33;11.20;;;7.90;;
3769;SDS011;1900;48.890;9.190;2022-11-11T03:33:18;10.33;;;7.30;;
3769;SDS011;1900;48.890;9.190;2022-11-11T03:36:02;10.13;;;7.47;;
3769;SDS011;1900;48.890;9.190;2022-11-11T03:38:47;12.30;;;7.70;;
3769;SDS011;1900;48.890;9.190;2022-11-11T03:41:31;10.50;;;7.80;;
3769;SDS011;1900;48.890;9.190;2022-11-11T03:44:15;16.03;;;8.33;;
3769;SDS011;1900;48.890;9.190;2022-11-11T03:46:59;14.67;;;7.43;;
3769;SDS011;1900;48.890;9.190;2022-11-11T03:49:43;10.70;;;7.53;;
3769;SDS011;1900;48.890;9.190;2022-11-11T03:52:30;12.50;;;7.60;;
3769;SDS011;1900;48.890;9.190;2022-11-11T03:55:14;16.60;;;8.90;;
3769;SDS011;1900;48.890;9.190;2022-11-11T03:57:59;14.50;;;7.50;;
3769;SDS011;1900;48.890;9.190;2022-11-11T04:00:43;11.67;;;9.17;;
3769;SDS011;1900;48.890;9.190;2022-11-11T04:03:28;15.63;;;8.03;;
3769;SDS011;1900;48.890;9.190;2022-11-11T04:06:31;14.67;;;8.33;;
3769;SDS011;1900;48.890;9.190;2022-11-11T04:09:34;12.07;;;8.07;;
3769;SDS011;1900;48.890;9.190;2022-11-11T04:12:37;15.37;;;8.83;;
3769;SDS011;1900;48.890;9.190;2022-11-11T04:15:44;10.67;;;8.43;;
3769;SDS011;1900;48.890;9.190;2022-11-11T04:18:47;17.73;;;10.00;;
3769;SDS011;1900;48.890;9.190;2022-11-11T04:21:50;11.67;;;8.10;;
3769;SDS011;1900;48.890;9.190;2022-11-11T04:24:34;11.30;;;7.77;;
3769;SDS011;1900;48.890;9.190;2022-11-11T04:27:38;13.60;;;8.70;;
3769;SDS011;1900;48.890;9.190;2022-11-11T04:30:22;14.27;;;8.20;;
3769;SDS011;1900;48.890;9.190;2022-11-11T04:33:06;14.70;;;8.20;;
3769;SDS011;1900;48.890;9.190;2022-11-11T04:35:50;14.27;;;9.17;;
3769;SDS011;1900;48.890;9.190;2022-11-11T04:38:34;12.80;;;8.80;;
3769;SDS011;1900;48.890;9.190;2022-11-11T04:41:37;19.60;;;8.43;;
3769;SDS011;1900;48.890;9.190;2022-11-11T04:44:21;13.07;;;8.50;;
3769;SDS011;1900;48.890;9.190;2022-11-11T04:47:25;14.20;;;8.53;;
3769;SDS011;1900;48.890;9.190;2022-11-11T04:50:09;12.20;;;8.30;;
3769;SDS011;1900;48.890;9.190;2022-11-11T04:52:53;10.97;;;8.03;;
3769;SDS011;1900;48.890;9.190;2022-11-11T04:55:37;13.10;;;8.43;;
3769;SDS011;1900;48.890;9.190;2022-11-11T04:58:42;11.97;;;7.40;;
3769;SDS011;1900;48.890;9.190;2022-11-11T05:01:26;14.93;;;8.13;;
3769;SDS011;1900;48.890;9.190;2022-11-11T05:04:29;11.03;;;7.37;;
3769;SDS011;1900;48.890;9.190;2022-11-11T05:07:14;11.60;;;7.67;;
3769;SDS011;1900;48.890;9.190;2022-11-11T05:10:21;20.33;;;7.10;;
3769;SDS011;1900;48.890;9.190;2022-11-11T05:13:07;8.97;;;7.00;;
3769;SDS011;1900;48.890;9.190;2022-11-11T05:16:15;11.40;;;7.50;;
3769;SDS011;1900;48.890;9.190;2022-11-11T05:19:21;9.70;;;7.70;;
3769;SDS011;1900;48.890;9.190;2022-11-11T05:22:38;12.00;;;7.70;;
3769;SDS011;1900;48.890;9.190;2022-11-11T05:25:23;15.30;;;7.80;;
3769;SDS011;1900;48.890;9.190;2022-11-11T05:28:12;8.53;;;6.57;;
3769;SDS011;1900;48.890;9.190;2022-11-11T05:30:56;9.63;;;6.13;;
3769;SDS011;1900;48.890;9.190;2022-11-11T05:33:40;8.67;;;6.53;;
3769;SDS011;1900;48.890;9.190;2022-11-11T05:36:24;11.00;;;8.03;;
3769;SDS011;1900;48.890;9.190;2022-11-11T05:39:08;7.53;;;6.83;;
3769;SDS011;1900;48.890;9.190;2022-11-11T05:41:52;11.77;;;7.80;;
3769;SDS011;1900;48.890;9.190;2022-11-11T05:44:36;13.93;;;8.10;;
3769;SDS011;1900;48.890;9.190;2022-11-11T05:47:20;14.43;;;7.90;;
3769;SDS011;1900;48.890;9.190;2022-11-11T05:50:04;19.37;;;7.53;;
3769;SDS011;1900;48.890;9.190;2022-11-11T05:52:49;9.70;;;6.40;;
3769;SDS011;1900;48.890;9.190;2022-11-11T05:55:33;11.67;;;8.40;;
3769;SDS011;1900;48.890;9.190;2022-11-11T05:58:18;16.60;;;8.53;;
3769;SDS011;1900;48.890;9.190;2022-11-11T06:01:02;9.03;;;7.20;;
3769;SDS011;1900;48.890;9.190;2022-11-11T06:03:47;10.60;;;7.10;;
3769;SDS011;1900;48.890;9.190;2022-11-11T06:06:31;13.13;;;8.13;;
3769;SDS011;1900;48.890;9.190;2022-11-11T06:09:16;11.63;;;7.23;;
3769;SDS011;1900;48.890;9.190;2022-11-11T06:12:00;8.10;;;6.43;;
3769;SDS011;1900;48.890;9.190;2022-11-11T06:14:44;15.40;;;7.37;;
3769;SDS011;1900;48.890;9.190;2022-11-11T06:17:29;9.03;;;6.57;;
3769;SDS011;1900;48.890;9.190;2022-11-11T06:20:13;8.13;;;5.57;;
3769;SDS011;1900;48.890;9.190;2022-11-11T06:22:57;8.07;;;6.40;;
3769;SDS011;1900;48.890;9.190;2022-11-11T06:25:41;12.80;;;6.87;;
3769;SDS011;1900;48.890;9.190;2022-11-11T06:28:48;11.03;;;6.90;;
3769;SDS011;1900;48.890;9.190;2022-11-11T06:31:37;13.93;;;6.70;;
3769;SDS011;1900;48.890;9.190;2022-11-11T06:34:21;9.10;;;6.57;;
3769;SDS011;1900;48.890;9.190;2022-11-11T06:37:05;9.40;;;6.30;;
3769;SDS011;1900;48.890;9.190;2022-11-11T06:39:49;11.47;;;7.20;;
3769;SDS011;1900;48.890;9.190;2022-11-11T06:42:36;10.60;;;7.40;;
3769;SDS011;1900;48.890;9.190;2022-11-11T06:45:21;8.37;;;6.90;;
3769;SDS011;1900;48.890;9.190;2022-11-11T06:48:09;9.30;;;6.43;;
3769;SDS011;1900;48.890;9.190;2022-11-11T06:50:54;9.17;;;6.53;;
3769;SDS011;1900;48.890;9.190;2022-11-11T06:53:44;9.60;;;6.70;;
3769;SDS011;1900;48.890;9.190;2022-11-11T06:56:28;8.53;;;6.70;;
3769;SDS011;1900;48.890;9.190;2022-11-11T06:59:12;11.37;;;6.93;;
3769;SDS011;1900;48.890;9.190;2022-11-11T07:01:56;8.33;;;7.43;;
3769;SDS011;1900;48.890;9.190;2022-11-11T07:04:40;9.20;;;6.97;;
3769;SDS011;1900;48.890;9.190;2022-11-11T07:07:24;16.20;;;10.00;;
3769;SDS011;1900;48.890;9.190;2022-11-11T07:10:09;7.60;;;6.80;;
3769;SDS011;1900;48.890;9.190;2022-11-11T07:12:53;10.10;;;7.00;;
3769;SDS011;1900;48.890;9.190;2022-11-11T07:15:37;8.70;;;7.10;;
3769;SDS011;1900;48.890;9.190;2022-11-11T07:18:22;12.70;;;7.27;;
3769;SDS011;1900;48.890;9.190;2022-11-11T07:21:06;11.20;;;8.00;;
3769;SDS011;1900;48.890;9.190;2022-11-11T07:23:50;13.03;;;8.23;;
3769;SDS011;1900;48.890;9.190;2022-11-11T07:26:34;12.50;;;7.97;;
3769;SDS011;1900;48.890;9.190;2022-11-11T07:29:18;10.93;;;8.37;;
3769;SDS011;1900;48.890;9.190;2022-11-11T07:32:03;18.03;;;7.37;;
3769;SDS011;1900;48.890;9.190;2022-11-11T07:34:47;17.07;;;7.53;;
3769;SDS011;1900;48.890;9.190;2022-11-11T07:37:34;10.10;;;7.27;;
3769;SDS011;1900;48.890;9.190;2022-11-11T07:40:20;16.53;;;8.13;;
3769;SDS011;1900;48.890;9.190;2022-11-11T07:43:04;16.37;;;7.50;;
3769;SDS011;1900;48.890;9.190;2022-11-11T07:45:48;11.57;;;7.93;;
3769;SDS011;1900;48.890;9.190;2022-11-11T07:48:32;9.87;;;6.90;;
3769;SDS011;1900;48.890;9.190;2022-11-11T07:51:16;11.90;;;7.80;;
3769;SDS011;1900;48.890;9.190;2022-11-11T07:54:00;11.17;;;7.57;;
3769;SDS011;1900;48.890;9.190;2022-11-11T07:56:45;11.90;;;8.10;;
3769;SDS011;1900;48.890;9.190;2022-11-11T07:59:29;13.70;;;7.63;;
3769;SDS011;1900;48.890;9.190;2022-11-11T08:02:13;12.20;;;8.23;;
3769;SDS011;1900;48.890;9.190;2022-11-11T08:04:58;9.50;;;7.10;;
3769;SDS011;1900;48.890;9.190;2022-11-11T08:07:42;12.90;;;6.70;;
3769;SDS011;1900;48.890;9.190;2022-11-11T08:10:26;9.80;;;6.50;;
3769;SDS011;1900;48.890;9.190;2022-11-11T08:13:10;8.47;;;6.83;;
3769;SDS011;1900;48.890;9.190;2022-11-11T08:16:14;13.73;;;6.10;;
3769;SDS011;1900;48.890;9.190;2022-11-11T08:18:59;10.53;;;5.53;;
3769;SDS011;1900;48.890;9.190;2022-11-11T08:21:43;10.60;;;6.17;;
3769;SDS011;1900;48.890;9.190;2022-11-11T08:24:27;9.00;;;6.53;;
3769;SDS011;1900;48.890;9.190;2022-11-11T08:27:12;9.13;;;5.73;;
3769;SDS011;1900;48.890;9.190;2022-11-11T08:29:55;9.10;;;6.17;;
3769;SDS011;1900;48.890;9.190;2022-11-11T08:32:40;7.90;;;5.93;;
3769;SDS011;1900;48.890;9.190;2022-11-11T08:35:24;9.53;;;6.20;;
3769;SDS011;1900;48.890;9.190;2022-11-11T08:38:09;9.20;;;6.07;;
3769;SDS011;1900;48.890;9.190;2022-11-11T08:40:54;13.50;;;6.10;;
3769;SDS011;1900;48.890;9.190;2022-11-11T08:43:42;11.57;;;6.70;;
3769;SDS011;1900;48.890;9.190;2022-11-11T08:46:26;10.80;;;6.37;;
3769;SDS011;1900;48.890;9.190;2022-11-11T08:49:10;8.47;;;6.13;;
3769;SDS011;1900;48.890;9.190;2022-11-11T08:51:55;10.70;;;6.73;;
3769;SDS011;1900;48.890;9.190;2022-11-11T08:54:40;10.73;;;6.70;;
3769;SDS011;1900;48.890;9.190;2022-11-11T08:57:24;10.80;;;5.80;;
3769;SDS011;1900;48.890;9.190;2022-11-11T09:00:08;10.83;;;5.93;;
3769;SDS011;1900;48.890;9.190;2022-11-11T09:02:56;7.40;;;6.33;;
3769;SDS011;1900;48.890;9.190;2022-11-11T09:05:47;7.73;;;5.80;;
3769;SDS011;1900;48.890;9.190;2022-11-11T09:08:31;8.73;;;5.63;;
3769;SDS011;1900;48.890;9.190;2022-11-11T09:11:15;6.83;;;5.57;;
3769;SDS011;1900;48.890;9.190;2022-11-11T09:13:59;12.70;;;6.00;;
3769;SDS011;1900;48.890;9.190;2022-11-11T09:16:44;9.57;;;6.17;;
3769;SDS011;1900;48.890;9.190;2022-11-11T09:19:28;11.50;;;6.37;;
3769;SDS011;1900;48.890;9.190;2022-11-11T09:22:12;7.10;;;5.47;;
3769;SDS011;1900;48.890;9.190;2022-11-11T09:24:56;11.70;;;5.90;;
3769;SDS011;1900;48.890;9.190;2022-11-11T09:27:40;14.13;;;5.97;;
3769;SDS011;1900;48.890;9.190;2022-11-11T09:30:26;9.30;;;5.70;;
3769;SDS011;1900;48.890;9.190;2022-11-11T09:33:11;7.77;;;5.40;;
3769;SDS011;1900;48.890;9.190;2022-11-11T09:35:58;8.93;;;5.80;;
3769;SDS011;1900;48.890;9.190;2022-11-11T09:38:42;8.57;;;5.23;;
3769;SDS011;1900;48.890;9.190;2022-11-11T09:41:36;8.37;;;4.90;;
3769;SDS011;1900;48.890;9.190;2022-11-11T09:50:54;13.60;;;6.77;;
3769;SDS011;1900;48.890;9.190;2022-11-11T09:53:43;7.47;;;5.40;;
3769;SDS011;1900;48.890;9.190;2022-11-11T09:56:33;9.80;;;5.20;;
3769;SDS011;1900;48.890;9.190;2022-11-11T09:59:24;6.53;;;4.80;;
3769;SDS011;1900;48.890;9.190;2022-11-11T10:02:17;8.93;;;5.40;;
3769;SDS011;1900;48.890;9.190;2022-11-11T10:05:21;8.60;;;5.63;;
3769;SDS011;1900;48.890;9.190;2022-11-11T10:08:25;8.87;;;5.80;;
3769;SDS011;1900;48.890;9.190;2022-11-11T10:14:22;9.80;;;5.63;;
3769;SDS011;1900;48.890;9.190;2022-11-11T10:23:02;10.53;;;4.87;;
3769;SDS011;1900;48.890;9.190;2022-11-11T10:26:00;9.17;;;5.93;;
3769;SDS011;1900;48.890;9.190;2022-11-11T10:28:57;8.13;;;5.23;;
3769;SDS011;1900;48.890;9.190;2022-11-11T10:31:55;9.57;;;5.57;;
3769;SDS011;1900;48.890;9.190;2022-11-11T10:34:45;14.03;;;5.40;;
3769;SDS011;1900;48.890;9.190;2022-11-11T10:37:35;7.60;;;5.30;;
3769;SDS011;1900;48.890;9.190;2022-11-11T10:40:33;18.57;;;5.20;;
3769;SDS011;1900;48.890;9.190;2022-11-11T10:43:27;7.27;;;5.43;;
3769;SDS011;1900;48.890;9.190;2022-11-11T10:52:28;8.20;;;5.67;;
3769;SDS011;1900;48.890;9.190;2022-11-11T10:55:18;8.00;;;5.70;;
3769;SDS011;1900;48.890;9.190;2022-11-11T10:58:09;9.83;;;5.80;;
3769;SDS011;1900;48.890;9.190;2022-11-11T11:00:59;9.80;;;5.53;;
3769;SDS011;1900;48.890;9.190;2022-11-11T11:03:47;9.23;;;5.67;;
3769;SDS011;1900;48.890;9.190;2022-11-11T11:06:38;10.70;;;5.37;;
3769;SDS011;1900;48.890;9.190;2022-11-11T11:09:45;7.17;;;4.90;;
3769;SDS011;1900;48.890;9.190;2022-11-11T11:12:44;6.97;;;4.90;;
3769;SDS011;1900;48.890;9.190;2022-11-11T11:15:41;7.37;;;5.27;;
3769;SDS011;1900;48.890;9.190;2022-11-11T11:18:32;7.53;;;4.87;;
3769;SDS011;1900;48.890;9.190;2022-11-11T11:21:16;6.33;;;4.87;;
3769;SDS011;1900;48.890;9.190;2022-11-11T11:24:00;7.87;;;5.40;;
3769;SDS011;1900;48.890;9.190;2022-11-11T11:26:45;6.37;;;5.33;;
3769;SDS011;1900;48.890;9.190;2022-11-11T11:32:26;7.67;;;5.10;;
3769;SDS011;1900;48.890;9.190;2022-11-11T11:35:28;6.50;;;5.20;;
3769;SDS011;1900;48.890;9.190;2022-11-11T11:38:16;7.67;;;5.77;;
3769;SDS011;1900;48.890;9.190;2022-11-11T11:41:01;8.37;;;5.77;;
3769;SDS011;1900;48.890;9.190;2022-11-11T11:43:45;8.77;;;5.20;;
3769;SDS011;1900;48.890;9.190;2022-11-11T11:46:36;7.77;;;5.83;;
3769;SDS011;1900;48.890;9.190;2022-11-11T11:49:33;12.20;;;5.57;;
3769;SDS011;1900;48.890;9.190;2022-11-11T11:52:37;6.93;;;4.77;;
3769;SDS011;1900;48.890;9.190;2022-11-11T11:55:43;5.40;;;4.50;;
3769;SDS011;1900;48.890;9.190;2022-11-11T12:27:09;8.27;;;3.97;;
3769;SDS011;1900;48.890;9.190;2022-11-11T12:30:18;8.60;;;4.00;;
3769;SDS011;1900;48.890;9.190;2022-11-11T12:36:15;5.30;;;3.70;;
3769;SDS011;1900;48.890;9.190;2022-11-11T12:45:56;6.67;;;4.00;;
3769;SDS011;1900;48.890;9.190;2022-11-11T12:55:59;6.10;;;3.80;;
3769;SDS011;1900;48.890;9.190;2022-11-11T13:16:03;14.93;;;3.67;;
3769;SDS011;1900;48.890;9.190;2022-11-11T13:18:53;5.60;;;2.60;;
3769;SDS011;1900;48.890;9.190;2022-11-11T13:22:00;8.77;;;4.17;;
3769;SDS011;1900;48.890;9.190;2022-11-11T13:24:51;9.20;;;3.50;;
3769;SDS011;1900;48.890;9.190;2022-11-11T13:33:41;3.50;;;2.77;;
3769;SDS011;1900;48.890;9.190;2022-11-11T13:36:30;6.00;;;3.50;;
3769;SDS011;1900;48.890;9.190;2022-11-11T13:39:25;6.10;;;3.23;;
3769;SDS011;1900;48.890;9.190;2022-11-11T13:42:17;9.27;;;3.40;;
3769;SDS011;1900;48.890;9.190;2022-11-11T13:45:16;7.47;;;3.30;;
3769;SDS011;1900;48.890;9.190;2022-11-11T13:48:14;9.57;;;4.63;;
3769;SDS011;1900;48.890;9.190;2022-11-11T13:54:03;7.27;;;3.43;;
3769;SDS011;1900;48.890;9.190;2022-11-11T14:08:57;6.93;;;3.00;;
3769;SDS011;1900;48.890;9.190;2022-11-11T14:11:42;5.73;;;3.10;;
3769;SDS011;1900;48.890;9.190;2022-11-11T14:14:44;5.40;;;2.60;;
3769;SDS011;1900;48.890;9.190;2022-11-11T14:17:29;4.60;;;2.87;;
3769;SDS011;1900;48.890;9.190;2022-11-11T14:40:36;8.20;;;3.37;;
3769;SDS011;1900;48.890;9.190;2022-11-11T14:46:22;8.87;;;3.90;;
3769;SDS011;1900;48.890;9.190;2022-11-11T14:49:06;5.97;;;3.10;;
3769;SDS011;1900;48.890;9.190;2022-11-11T14:51:58;7.43;;;4.10;;
3769;SDS011;1900;48.890;9.190;2022-11-11T14:58:13;11.07;;;6.03;;
3769;SDS011;1900;48.890;9.190;2022-11-11T15:01:20;10.80;;;6.13;;
3769;SDS011;1900;48.890;9.190;2022-11-11T15:04:04;10.50;;;6.07;;
3769;SDS011;1900;48.890;9.190;2022-11-11T15:06:59;8.40;;;6.30;;
3769;SDS011;1900;48.890;9.190;2022-11-11T15:18:49;10.10;;;5.70;;
3769;SDS011;1900;48.890;9.190;2022-11-11T15:21:52;8.83;;;5.53;;
3769;SDS011;1900;48.890;9.190;2022-11-11T15:28:18;8.20;;;5.07;;
3769;SDS011;1900;48.890;9.190;2022-11-11T15:34:43;9.30;;;6.03;;
3769;SDS011;1900;48.890;9.190;2022-11-11T15:37:40;8.00;;;4.53;;
3769;SDS011;1900;48.890;9.190;2022-11-11T15:40:47;8.20;;;4.87;;
3769;SDS011;1900;48.890;9.190;2022-11-11T15:43:33;10.67;;;5.40;;
3769;SDS011;1900;48.890;9.190;2022-11-11T15:46:23;6.27;;;4.90;;
3769;SDS011;1900;48.890;9.190;2022-11-11T15:55:22;10.70;;;4.77;;
3769;SDS011;1900;48.890;9.190;2022-11-11T15:58:25;8.00;;;4.37;;
3769;SDS011;1900;48.890;9.190;2022-11-11T16:01:10;7.13;;;4.73;;
3769;SDS011;1900;48.890;9.190;2022-11-11T16:03:55;8.50;;;5.03;;
3769;SDS011;1900;48.890;9.190;2022-11-11T16:06:40;7.67;;;4.87;;
3769;SDS011;1900;48.890;9.190;2022-11-11T16:09:26;6.30;;;5.47;;
3769;SDS011;1900;48.890;9.190;2022-11-11T16:12:15;10.20;;;5.60;;
3769;SDS011;1900;48.890;9.190;2022-11-11T16:15:06;6.03;;;4.90;;
3769;SDS011;1900;48.890;9.190;2022-11-11T16:17:52;9.87;;;5.50;;
3769;SDS011;1900;48.890;9.190;2022-11-11T16:20:39;9.37;;;5.67;;
3769;SDS011;1900;48.890;9.190;2022-11-11T16:23:32;7.60;;;4.40;;
3769;SDS011;1900;48.890;9.190;2022-11-11T16:26:17;9.30;;;5.53;;
3769;SDS011;1900;48.890;9.190;2022-11-11T16:29:03;9.60;;;5.53;;
3769;SDS011;1900;48.890;9.190;2022-11-11T16:31:58;17.10;;;5.57;;
3769;SDS011;1900;48.890;9.190;2022-11-11T16:34:43;8.90;;;6.73;;
3769;SDS011;1900;48.890;9.190;2022-11-11T16:37:28;11.27;;;6.10;;
3769;SDS011;1900;48.890;9.190;2022-11-11T16:40:25;12.47;;;7.17;;
3769;SDS011;1900;48.890;9.190;2022-11-11T16:43:30;12.73;;;6.23;;
3769;SDS011;1900;48.890;9.190;2022-11-11T16:46:37;17.60;;;7.13;;
3769;SDS011;1900;48.890;9.190;2022-11-11T16:49:27;8.80;;;6.43;;
3769;SDS011;1900;48.890;9.190;2022-11-11T16:52:19;11.33;;;7.07;;
3769;SDS011;1900;48.890;9.190;2022-11-11T16:55:05;11.90;;;7.30;;
3769;SDS011;1900;48.890;9.190;2022-11-11T16:57:53;20.53;;;9.00;;
3769;SDS011;1900;48.890;9.190;2022-11-11T17:00:37;17.30;;;9.50;;
3769;SDS011;1900;48.890;9.190;2022-11-11T17:03:22;18.60;;;9.67;;
3769;SDS011;1900;48.890;9.190;2022-11-11T17:06:10;14.17;;;8.43;;
3769;SDS011;1900;48.890;9.190;2022-11-11T17:08:54;21.70;;;9.53;;
3769;SDS011;1900;48.890;9.190;2022-11-11T17:14:23;19.83;;;9.23;;
3769;SDS011;1900;48.890;9.190;2022-11-11T17:17:09;17.53;;;8.97;;
3769;SDS011;1900;48.890;9.190;2022-11-11T17:20:02;15.93;;;8.80;;
3769;SDS011;1900;48.890;9.190;2022-11-11T17:22:49;16.57;;;7.93;;
3769;SDS011;1900;48.890;9.190;2022-11-11T17:25:38;20.17;;;9.47;;
3769;SDS011;1900;48.890;9.190;2022-11-11T17:28:22;16.50;;;8.53;;
3769;SDS011;1900;48.890;9.190;2022-11-11T17:31:07;13.27;;;8.87;;
3769;SDS011;1900;48.890;9.190;2022-11-11T17:33:53;16.47;;;9.10;;
3769;SDS011;1900;48.890;9.190;2022-11-11T17:36:38;15.93;;;9.53;;
3769;SDS011;1900;48.890;9.190;2022-11-11T17:39:22;18.33;;;9.83;;
3769;SDS011;1900;48.890;9.190;2022-11-11T17:42:06;15.40;;;11.63;;
3769;SDS011;1900;48.890;9.190;2022-11-11T17:44:51;15.23;;;11.27;;
3769;SDS011;1900;48.890;9.190;2022-11-11T17:47:35;22.13;;;14.50;;
3769;SDS011;1900;48.890;9.190;2022-11-11T17:50:19;22.33;;;17.07;;
3769;SDS011;1900;48.890;9.190;2022-11-11T17:53:03;33.03;;;16.57;;
3769;SDS011;1900;48.890;9.190;2022-11-11T17:55:48;32.70;;;18.53;;
3769;SDS011;1900;48.890;9.190;2022-11-11T17:58:36;24.03;;;16.37;;
3769;SDS011;1900;48.890;9.190;2022-11-11T18:01:20;30.43;;;17.50;;
3769;SDS011;1900;48.890;9.190;2022-11-11T18:04:05;32.87;;;18.23;;
3769;SDS011;1900;48.890;9.190;2022-11-11T18:06:49;23.93;;;16.20;;
3769;SDS011;1900;48.890;9.190;2022-11-11T18:09:34;22.80;;;15.67;;
3769;SDS011;1900;48.890;9.190;2022-11-11T18:12:18;33.23;;;16.77;;
3769;SDS011;1900;48.890;9.190;2022-11-11T18:15:03;38.97;;;18.83;;
3769;SDS011;1900;48.890;9.190;2022-11-11T18:17:48;34.40;;;20.83;;
3769;SDS011;1900;48.890;9.190;2022-11-11T18:20:32;49.50;;;24.40;;
3769;SDS011;1900;48.890;9.190;2022-11-11T18:23:17;52.60;;;25.97;;
3769;SDS011;1900;48.890;9.190;2022-11-11T18:26:01;49.80;;;26.63;;
3769;SDS011;1900;48.890;9.190;2022-11-11T18:28:46;51.40;;;23.70;;
3769;SDS011;1900;48.890;9.190;2022-11-11T18:31:30;34.87;;;21.13;;
3769;SDS011;1900;48.890;9.190;2022-11-11T18:34:14;35.00;;;21.30;;
3769;SDS011;1900;48.890;9.190;2022-11-11T18:36:58;34.70;;;19.43;;
3769;SDS011;1900;48.890;9.190;2022-11-11T18:39:42;29.20;;;18.17;;
3769;SDS011;1900;48.890;9.190;2022-11-11T18:42:26;36.63;;;20.00;;
3769;SDS011;1900;48.890;9.190;2022-11-11T18:45:10;30.23;;;16.93;;
3769;SDS011;1900;48.890;9.190;2022-11-11T18:47:55;23.90;;;15.57;;
3769;SDS011;1900;48.890;9.190;2022-11-11T18:50:39;23.17;;;14.47;;
3769;SDS011;1900;48.890;9.190;2022-11-11T18:53:23;31.33;;;14.90;;
3769;SDS011;1900;48.890;9.190;2022-11-11T18:56:09;22.50;;;14.40;;
3769;SDS011;1900;48.890;9.190;2022-11-11T18:58:56;24.07;;;14.50;;
3769;SDS011;1900;48.890;9.190;2022-11-11T19:01:41;22.70;;;12.43;;
3769;SDS011;1900;48.890;9.190;2022-11-11T19:04:25;26.70;;;14.17;;
3769;SDS011;1900;48.890;9.190;2022-11-11T19:07:09;20.60;;;12.80;;
3769;SDS011;1900;48.890;9.190;2022-11-11T19:09:53;18.37;;;11.70;;
3769;SDS011;1900;48.890;9.190;2022-11-11T19:12:37;23.83;;;11.57;;
3769;SDS011;1900;48.890;9.190;2022-11-11T19:15:21;16.50;;;11.47;;
3769;SDS011;1900;48.890;9.190;2022-11-11T19:18:05;16.63;;;11.40;;
3769;SDS011;1900;48.890;9.190;2022-11-11T19:20:49;20.30;;;12.17;;
3769;SDS011;1900;48.890;9.190;2022-11-11T19:23:33;21.90;;;12.40;;
3769;SDS011;1900;48.890;9.190;2022-11-11T19:26:18;20.10;;;13.57;;
3769;SDS011;1900;48.890;9.190;2022-11-11T19:29:04;19.80;;;11.70;;
3769;SDS011;1900;48.890;9.190;2022-11-11T19:31:49;19.60;;;11.83;;
3769;SDS011;1900;48.890;9.190;2022-11-11T19:34:32;22.27;;;13.20;;
3769;SDS011;1900;48.890;9.190;2022-11-11T19:37:17;28.23;;;15.73;;
3769;SDS011;1900;48.890;9.190;2022-11-11T19:40:05;27.40;;;13.73;;
3769;SDS011;1900;48.890;9.190;2022-11-11T19:42:50;28.43;;;15.10;;
3769;SDS011;1900;48.890;9.190;2022-11-11T19:45:34;29.57;;;16.10;;
3769;SDS011;1900;48.890;9.190;2022-11-11T19:48:18;16.30;;;10.90;;
3769;SDS011;1900;48.890;9.190;2022-11-11T19:51:03;25.13;;;11.93;;
3769;SDS011;1900;48.890;9.190;2022-11-11T19:53:57;24.10;;;13.00;;
3769;SDS011;1900;48.890;9.190;2022-11-11T19:56:43;19.63;;;11.93;;
3769;SDS011;1900;48.890;9.190;2022-11-11T19:59:27;22.63;;;12.50;;
3769;SDS011;1900;48.890;9.190;2022-11-11T20:02:11;20.57;;;11.77;;